Time;durP1;ratioP1;P1;durP2;ratioP2;P2;SDS_P1;SDS_P2;PMS_P1;PMS_P2;Temp;Humidity;BMP_temperature;BMP_pressure;BME280_temperature;BME280_humidity;BME280_pressure;Samples;Min_cycle;Max_cycle;Signal;HPM_P1;HPM_P2
2022/12/17 13:09:37;;;;;;;;;;;1.00;99.90;;;;;;8379215;28;19943;-70
2022/12/17 13:13:54;;;;;;;;;;;1.00;99.90;;;;;;8390082;28;19924;-70
2022/12/17 13:18:00;;;;;;;;;;;0.90;99.90;;;;;;8394817;28;20466;-71
2022/12/17 13:22:28;;;;;;;;;;;0.90;99.90;;;;;;8395928;28;20022;-70
2022/12/17 13:26:41;;;;;;;;;;;0.90;99.90;;;;;;8380129;28;19976;-70
2022/12/17 13:30:44;;;;;;;;;;;1.00;99.90;;;;;;8382556;28;19934;-70
2022/12/17 13:35:15;;;;;;;;;;;0.90;99.90;;;;;;8398069;28;19924;-70
2022/12/17 13:39:16;;;;;;;;;;;0.90;99.90;;;;;;8365754;28;19978;-71
2022/12/17 13:43:19;;;;;;;;;;;1.00;99.90;;;;;;8374587;28;19964;-70
2022/12/17 13:47:23;;;;;;;;;;;1.00;99.90;;;;;;8387639;28;19947;-71
2022/12/17 13:51:26;;;;;;;;;;;0.90;99.90;;;;;;8375209;28;19986;-70
2022/12/17 13:55:28;;;;;;;;;;;0.90;99.90;;;;;;8384682;28;19925;-71
2022/12/17 13:59:30;;;;;;;;;;;1.00;99.90;;;;;;8382567;28;19934;-71
2022/12/17 14:03:31;;;;;;;;;;;1.00;99.90;;;;;;8385173;28;20468;-70
2022/12/17 14:07:53;;;;;;;;;;;1.00;99.90;;;;;;8383130;28;19925;-70
2022/12/17 14:16:16;;;;;;;;;;;0.80;99.90;;;;;;8373687;28;19924;-70
2022/12/17 14:20:20;;;;;;;;;;;0.70;99.90;;;;;;8364776;28;19931;-70
2022/12/17 14:24:27;;;;;;;;;;;0.60;99.90;;;;;;8351637;28;20020;-70
2022/12/17 14:28:29;;;;;;;;;;;0.50;99.90;;;;;;8366674;28;19941;-70
2022/12/17 14:32:35;;;;;;;;;;;0.50;99.90;;;;;;8363017;28;19940;-70
2022/12/17 14:36:38;;;;;;;;;;;0.50;99.90;;;;;;8379371;28;19928;-70
2022/12/17 14:40:39;;;;;;;;;;;0.50;99.90;;;;;;8380650;28;19935;-71
2022/12/17 14:44:49;;;;;;;;;;;0.40;99.90;;;;;;8389836;28;19947;-70
2022/12/17 14:49:01;;;;;;;;;;;0.40;99.90;;;;;;8381135;28;19956;-70
2022/12/17 14:53:22;;;;;;;;;;;0.40;99.90;;;;;;8383025;28;19979;-70
2022/12/17 14:57:23;;;;;;;;;;;0.40;99.90;;;;;;8382948;28;19932;-70
2022/12/17 15:01:25;;;;;;;;;;;0.40;99.90;;;;;;8384952;28;20284;-70
2022/12/17 15:05:27;;;;;;;;;;;0.30;99.90;;;;;;8369253;28;19929;-70
2022/12/17 15:09:29;;;;;;;;;;;0.30;99.90;;;;;;8366193;28;19940;-70
2022/12/17 15:13:30;;;;;;;;;;;0.30;99.90;;;;;;8404585;28;20362;-70
2022/12/17 15:17:32;;;;;;;;;;;0.20;99.90;;;;;;8359731;28;19978;-70
2022/12/17 15:21:34;;;;;;;;;;;0.20;99.90;;;;;;8387070;28;20021;-70
2022/12/17 15:25:35;;;;;;;;;;;0.10;99.90;;;;;;8379842;28;19924;-71
2022/12/17 15:29:44;;;;;;;;;;;0.00;99.90;;;;;;8372739;28;19940;-70
2022/12/17 15:33:46;;;;;;;;;;;0.00;99.90;;;;;;8383257;28;19924;-70
2022/12/17 15:37:48;;;;;;;;;;;0.00;99.90;;;;;;8368319;28;19939;-70
2022/12/17 15:46:10;;;;;;;;;;;-0.10;99.90;;;;;;8375239;28;19924;-70
2022/12/17 15:50:11;;;;;;;;;;;-0.10;99.90;;;;;;8381713;28;20364;-71
2022/12/17 15:54:13;;;;;;;;;;;-0.10;99.90;;;;;;8379538;28;19932;-70
2022/12/17 15:58:15;;;;;;;;;;;-0.10;99.90;;;;;;8374357;28;19925;-70
2022/12/17 16:02:16;;;;;;;;;;;-0.10;99.90;;;;;;8349200;28;19973;-70
2022/12/17 16:06:18;;;;;;;;;;;-0.20;99.90;;;;;;8353388;28;19964;-71
2022/12/17 16:10:20;;;;;;;;;;;-0.20;99.90;;;;;;8349463;28;20438;-70
2022/12/17 16:14:22;;;;;;;;;;;-0.10;99.90;;;;;;8356024;28;20359;-70
2022/12/17 16:18:24;;;;;;;;;;;-0.10;99.90;;;;;;8355646;28;19932;-70
2022/12/17 16:22:26;;;;;;;;;;;0.00;99.90;;;;;;8348900;28;20011;-71
2022/12/17 16:26:28;;;;;;;;;;;-0.10;99.90;;;;;;8334771;28;19940;-69
2022/12/17 16:30:29;;;;;;;;;;;-0.10;99.90;;;;;;8338756;28;19972;-70
2022/12/17 16:34:31;;;;;;;;;;;-0.10;99.90;;;;;;8350551;28;19964;-70
2022/12/17 16:38:33;;;;;;;;;;;-0.20;99.90;;;;;;8357128;28;19925;-70
2022/12/17 16:42:35;;;;;;;;;;;-0.20;99.90;;;;;;8353962;28;19968;-70
2022/12/17 16:46:38;;;;;;;;;;;-0.20;99.90;;;;;;8350490;28;19932;-70
2022/12/17 16:50:40;;;;;;;;;;;-0.30;99.90;;;;;;8353943;28;20059;-70
2022/12/17 16:54:42;;;;;;;;;;;-0.30;99.90;;;;;;8335414;28;19938;-70
2022/12/17 16:58:44;;;;;;;;;;;-0.30;99.90;;;;;;8351647;28;19929;-70
2022/12/17 17:02:46;;;;;;;;;;;-0.40;99.90;;;;;;8351006;28;19932;-70
2022/12/17 17:06:54;;;;;;;;;;;-0.40;99.90;;;;;;8355591;28;19924;-70
2022/12/17 17:10:56;;;;;;;;;;;-0.40;99.90;;;;;;8354030;28;20324;-70
2022/12/17 17:14:57;;;;;;;;;;;-0.30;99.90;;;;;;8354107;28;19933;-69
2022/12/17 17:18:59;;;;;;;;;;;-0.40;99.90;;;;;;8353963;28;19925;-70
2022/12/17 17:23:01;;;;;;;;;;;-0.40;99.90;;;;;;8341215;28;19929;-70
2022/12/17 17:27:03;;;;;;;;;;;-0.40;99.90;;;;;;8358003;28;20360;-70
2022/12/17 17:31:06;;;;;;;;;;;-0.40;99.90;;;;;;8358618;28;20008;-70
2022/12/17 17:35:08;;;;;;;;;;;-0.40;99.90;;;;;;8359034;28;20356;-70
2022/12/17 17:39:09;;;;;;;;;;;-0.40;99.90;;;;;;8356400;28;19972;-70
2022/12/17 17:43:11;;;;;;;;;;;-0.50;99.90;;;;;;8352668;28;19933;-70
2022/12/17 17:47:13;;;;;;;;;;;-0.50;99.90;;;;;;8357569;28;20372;-70
2022/12/17 17:51:16;;;;;;;;;;;-0.50;99.90;;;;;;8357109;28;20261;-70
2022/12/17 17:55:18;;;;;;;;;;;-0.60;99.90;;;;;;8355359;28;19940;-70
2022/12/17 17:59:21;;;;;;;;;;;-0.60;99.90;;;;;;8356130;28;19929;-70
2022/12/17 18:03:27;;;;;;;;;;;-0.60;99.90;;;;;;8341741;28;20395;-70
2022/12/17 18:07:29;;;;;;;;;;;-0.60;99.90;;;;;;8360004;28;19925;-70
2022/12/17 18:11:31;;;;;;;;;;;-0.60;99.90;;;;;;8359443;28;19933;-70
2022/12/17 18:15:33;;;;;;;;;;;-0.60;99.90;;;;;;8357945;28;19928;-70
2022/12/17 18:19:34;;;;;;;;;;;-0.60;99.90;;;;;;8358953;28;19925;-70
2022/12/17 18:23:36;;;;;;;;;;;-0.60;99.90;;;;;;8357323;28;19932;-70
2022/12/17 18:27:38;;;;;;;;;;;-0.60;99.90;;;;;;8358007;28;19971;-70
2022/12/17 18:31:39;;;;;;;;;;;-0.60;99.90;;;;;;8353787;28;20027;-70
2022/12/17 18:35:41;;;;;;;;;;;-0.70;99.90;;;;;;8336663;28;19928;-70
2022/12/17 18:39:43;;;;;;;;;;;-0.70;99.90;;;;;;8362363;28;19973;-70
2022/12/17 18:43:44;;;;;;;;;;;-0.70;99.90;;;;;;8361073;28;20671;-69
2022/12/17 18:47:46;;;;;;;;;;;-0.70;99.90;;;;;;8354882;28;20296;-70
2022/12/17 18:51:49;;;;;;;;;;;-0.80;99.90;;;;;;8357653;28;20328;-70
2022/12/17 18:55:52;;;;;;;;;;;-0.80;99.90;;;;;;8354458;28;20292;-70
2022/12/17 18:59:54;;;;;;;;;;;-0.90;99.90;;;;;;8356801;28;20027;-70
2022/12/17 19:03:56;;;;;;;;;;;-0.90;99.90;;;;;;8358031;28;20341;-70
2022/12/17 19:08:00;;;;;;;;;;;-1.00;99.90;;;;;;8358448;28;19939;-70
2022/12/17 19:12:03;;;;;;;;;;;-1.00;99.90;;;;;;8355495;28;19929;-70
2022/12/17 19:16:09;;;;;;;;;;;-1.00;99.90;;;;;;8355099;28;19970;-70
2022/12/17 19:20:11;;;;;;;;;;;-1.00;99.90;;;;;;8354827;28;19932;-70
2022/12/17 19:24:14;;;;;;;;;;;-1.00;99.90;;;;;;8353388;28;19933;-70
2022/12/17 19:28:16;;;;;;;;;;;-1.10;99.90;;;;;;8354375;28;19925;-70
2022/12/17 19:32:18;;;;;;;;;;;-1.00;99.90;;;;;;8352882;28;19951;-70
2022/12/17 19:36:20;;;;;;;;;;;-1.00;99.90;;;;;;8355247;28;19990;-70
2022/12/17 19:40:28;;;;;;;;;;;-1.00;99.90;;;;;;8353360;28;20390;-70
2022/12/17 19:44:30;;;;;;;;;;;-1.10;99.90;;;;;;8354343;28;19964;-70
2022/12/17 19:48:32;;;;;;;;;;;-1.20;99.90;;;;;;8353039;28;19928;-69
2022/12/17 19:52:34;;;;;;;;;;;-1.20;99.90;;;;;;8355674;28;19932;-70
2022/12/17 19:56:35;;;;;;;;;;;-1.30;99.90;;;;;;8354939;28;20055;-70
2022/12/17 20:00:37;;;;;;;;;;;-1.30;99.90;;;;;;8351511;28;19976;-70
2022/12/17 20:04:39;;;;;;;;;;;-1.30;99.90;;;;;;8354488;28;19943;-70
2022/12/17 20:08:40;;;;;;;;;;;-1.30;99.90;;;;;;8356661;28;19929;-70
2022/12/17 20:12:42;;;;;;;;;;;-1.30;99.90;;;;;;8351782;28;19968;-70
2022/12/17 20:16:45;;;;;;;;;;;-1.30;99.90;;;;;;8354893;28;19931;-70
2022/12/17 20:20:47;;;;;;;;;;;-1.30;99.90;;;;;;8353728;28;20063;-70
2022/12/17 20:24:48;;;;;;;;;;;-1.30;99.90;;;;;;8355391;28;19976;-69
2022/12/17 20:28:50;;;;;;;;;;;-1.30;99.90;;;;;;8354656;28;19995;-70
2022/12/17 20:32:52;;;;;;;;;;;-1.50;99.90;;;;;;8353261;28;19933;-70
2022/12/17 20:36:54;;;;;;;;;;;-1.60;99.90;;;;;;8353055;28;19961;-70
2022/12/17 20:40:55;;;;;;;;;;;-1.60;99.90;;;;;;8351796;28;19939;-70
2022/12/17 20:44:57;;;;;;;;;;;-1.70;99.90;;;;;;8355545;28;19924;-70
2022/12/17 20:48:59;;;;;;;;;;;-1.70;99.90;;;;;;8352370;28;20325;-70
2022/12/17 20:53:01;;;;;;;;;;;-1.70;99.90;;;;;;8355028;28;19935;-69
2022/12/17 20:57:03;;;;;;;;;;;-1.70;99.90;;;;;;8363767;28;19967;-70
2022/12/17 21:01:09;;;;;;;;;;;-1.70;99.90;;;;;;8343359;28;20363;-70
2022/12/17 21:05:11;;;;;;;;;;;-1.70;99.90;;;;;;8358167;28;19951;-69
2022/12/17 21:09:13;;;;;;;;;;;-1.70;99.90;;;;;;8357032;28;19974;-70
2022/12/17 21:13:30;;;;;;;;;;;-1.70;99.90;;;;;;8360295;28;19924;-70
2022/12/17 21:17:31;;;;;;;;;;;-1.80;99.90;;;;;;8358105;28;19928;-70
2022/12/17 21:21:35;;;;;;;;;;;-1.80;99.90;;;;;;8359557;28;19935;-70
2022/12/17 21:25:37;;;;;;;;;;;-1.70;99.90;;;;;;8356208;28;19935;-70
2022/12/17 21:29:39;;;;;;;;;;;-1.60;99.90;;;;;;8358240;28;19924;-70
2022/12/17 21:33:40;;;;;;;;;;;-1.60;99.90;;;;;;8339752;28;19976;-69
2022/12/17 21:37:42;;;;;;;;;;;-1.60;99.90;;;;;;8357973;28;20662;-70
2022/12/17 21:51:51;;;;;;;;;;;-1.70;99.90;;;;;;8349428;28;20308;-70
2022/12/17 21:56:00;;;;;;;;;;;-1.70;99.90;;;;;;8358751;28;20375;-70
2022/12/17 22:10:23;;;;;;;;;;;-1.70;99.90;;;;;;8382364;28;19938;-70
2022/12/17 22:14:40;;;;;;;;;;;-1.70;99.90;;;;;;8376036;28;19929;-70
2022/12/17 22:18:42;;;;;;;;;;;-1.70;99.90;;;;;;8364093;28;20353;-70
2022/12/17 22:22:44;;;;;;;;;;;-1.70;99.90;;;;;;8376255;28;20467;-70
2022/12/17 22:26:46;;;;;;;;;;;-1.80;99.90;;;;;;8381567;28;19924;-70
2022/12/17 22:35:08;;;;;;;;;;;-1.80;99.90;;;;;;8380230;28;19924;-70
2022/12/17 22:39:29;;;;;;;;;;;-1.90;99.90;;;;;;8376041;28;19979;-70
2022/12/17 22:43:51;;;;;;;;;;;-1.90;99.90;;;;;;8383006;28;19986;-70
2022/12/17 22:48:13;;;;;;;;;;;-1.90;99.90;;;;;;8364162;28;19933;-70
2022/12/17 22:52:15;;;;;;;;;;;-1.90;99.90;;;;;;8392580;28;19924;-70
2022/12/17 22:56:18;;;;;;;;;;;-1.90;99.90;;;;;;8390458;28;20346;-70
2022/12/17 23:00:38;;;;;;;;;;;-1.90;99.90;;;;;;8368616;28;19925;-70
2022/12/17 23:04:40;;;;;;;;;;;-2.00;99.90;;;;;;8388297;28;19924;-70
2022/12/17 23:08:42;;;;;;;;;;;-2.00;99.90;;;;;;8384121;28;19925;-70
2022/12/17 23:12:50;;;;;;;;;;;-2.10;99.90;;;;;;8382350;28;20629;-70
2022/12/17 23:16:52;;;;;;;;;;;-2.10;99.90;;;;;;8388294;28;19938;-70
2022/12/17 23:20:53;;;;;;;;;;;-2.20;99.90;;;;;;8378694;28;19954;-70
2022/12/17 23:24:55;;;;;;;;;;;-2.20;99.90;;;;;;8377675;28;20303;-70
2022/12/17 23:28:58;;;;;;;;;;;-2.20;99.90;;;;;;8365565;28;19933;-70
2022/12/17 23:32:59;;;;;;;;;;;-2.20;99.90;;;;;;8389663;28;19931;-70
2022/12/17 23:37:01;;;;;;;;;;;-2.20;99.90;;;;;;8384960;28;19925;-69
2022/12/17 23:41:07;;;;;;;;;;;-2.30;99.90;;;;;;8371986;28;19929;-70
2022/12/17 23:45:10;;;;;;;;;;;-2.30;99.90;;;;;;8386516;28;19924;-69
2022/12/17 23:49:13;;;;;;;;;;;-2.50;99.90;;;;;;8387766;28;20432;-70
